Decoded Metar for KPUC (PRICE in UT, USA) (IATA:PUC) | Meteo·Mobile Aviation Weather
aviador You're here:

KPUC Decoded Metar

PRICE in UT, USA
Report Time2018-08-21 19:53:00
UTC Time2018-08-21 19:56:09
Flight Rules vfr VFR
Wind020° at 06 kt
W.Decomp.*RWY 36: 6.0 kt HW 0.6 kt RCW
RWY 32: 4.2 kt HW 4.3 kt RCW
RWY 07: 2.6 kt HW 5.4 kt LCW
W.Rank020° ranks 1
Current wind is below 020° avg. (7.0)
Visibility9999 m
Phenomena:N/A
Clouds:Scattered 080 Hf
Scattered 095 Hf
Expected CloudBase > 2,800 ft AGL from Temp-Dew spread
CeilingNone
Temp20°C (ISA +19)
Dew Point13°C (64% RH)
AAT18.8°C
QNH1023 hPa
Density Alt8,885 ft
Elevation6,860 ft
Report Wrong Elevation
Raw Report
METAR KPUC 211953Z AUTO 02006KT 10SM SCT080 SCT095 20/13 A3020 RMK
AO2 LTG DSNT SE-W RAE10 TSE1856 SLP166 P0000 T02000133=

Extra information for KPUC:More info

Metar Taf Metar & Taf Last 4 Metars F.Rules Stats Wind Profile Meteogram Temp Stats Airport Information Weather charts Add Link Nearby VenuesMetar ALERT Operation Metar Decoded Social comments

AIRNAV info for KPUC